createdAt,value
2022-08-25T00:01:35.196Z,23.19
2022-08-25T00:04:06.392Z,22.86
2022-08-25T00:06:33.140Z,22.88
2022-08-25T00:08:59.461Z,22.77
2022-08-25T00:11:29.891Z,22.74
2022-08-25T00:13:59.920Z,22.77
2022-08-25T00:16:26.918Z,22.74
2022-08-25T00:18:57.025Z,22.92
2022-08-25T00:21:24.133Z,22.90
2022-08-25T00:23:51.053Z,23.18
2022-08-25T00:26:17.886Z,22.54
2022-08-25T00:28:44.647Z,22.51
2022-08-25T00:31:15.788Z,22.21
2022-08-25T00:33:43.663Z,21.97
2022-08-25T00:36:10.300Z,21.94
2022-08-25T00:38:36.616Z,22.32
2022-08-25T00:41:03.948Z,22.27
2022-08-25T00:43:42.560Z,22.11
2022-08-25T00:46:10.340Z,22.47
2022-08-25T00:48:38.923Z,22.25
2022-08-25T00:51:09.553Z,21.94
2022-08-25T00:53:35.995Z,21.90
2022-08-25T00:56:02.595Z,22.04
2022-08-25T00:58:29.490Z,21.82
2022-08-25T01:00:56.794Z,22.17
2022-08-25T01:03:33.212Z,21.90
2022-08-25T01:06:03.802Z,21.63
2022-08-25T01:08:32.384Z,21.74
2022-08-25T01:11:02.518Z,21.77
2022-08-25T01:13:43.327Z,21.72
2022-08-25T01:16:10.285Z,21.69
2022-08-25T01:18:52.886Z,21.61
2022-08-25T01:21:21.300Z,21.38
2022-08-25T01:23:49.508Z,21.37
2022-08-25T01:26:21.252Z,21.29
2022-08-25T01:28:57.900Z,21.47
2022-08-25T01:31:24.551Z,21.27
2022-08-25T01:33:51.085Z,21.43
2022-08-25T01:36:22.605Z,21.09
2022-08-25T01:38:50.040Z,20.95
2022-08-25T01:41:25.610Z,20.94
2022-08-25T01:43:52.317Z,20.87
2022-08-25T01:46:18.764Z,20.70
2022-08-25T01:48:45.139Z,20.71
2022-08-25T01:51:11.503Z,20.67
2022-08-25T01:53:37.970Z,20.86
2022-08-25T01:56:12.824Z,20.67
2022-08-25T01:58:42.943Z,20.68
2022-08-25T02:01:17.257Z,20.59
2022-08-25T02:03:46.560Z,20.70
2022-08-25T02:06:18.946Z,20.65
2022-08-25T02:08:45.355Z,20.84
2022-08-25T02:11:14.271Z,20.51
2022-08-25T02:13:42.118Z,20.85
2022-08-25T02:16:14.554Z,20.71
2022-08-25T02:18:40.895Z,20.74
2022-08-25T02:21:07.266Z,20.60
2022-08-25T02:23:33.623Z,20.87
2022-08-25T02:25:59.924Z,20.71
2022-08-25T02:28:26.316Z,20.52
2022-08-25T02:30:52.983Z,20.48
2022-08-25T02:33:27.491Z,20.61
2022-08-25T02:35:57.677Z,20.50
2022-08-25T02:38:24.027Z,20.76
2022-08-25T02:40:50.448Z,20.75
2022-08-25T02:43:16.799Z,20.71
2022-08-25T02:45:43.140Z,20.64
2022-08-25T02:48:09.884Z,20.75
2022-08-25T02:50:36.210Z,21.30
2022-08-25T02:53:02.544Z,21.48
2022-08-25T02:55:29.263Z,21.80
2022-08-25T02:57:55.631Z,21.69
2022-08-25T03:00:22.084Z,21.69
2022-08-25T03:02:49.604Z,21.85
2022-08-25T03:05:16.585Z,21.75
2022-08-25T03:07:42.970Z,21.90
2022-08-25T03:10:14.831Z,21.40
2022-08-25T03:12:41.238Z,21.41
2022-08-25T03:15:13.264Z,21.24
2022-08-25T03:17:39.941Z,21.34
2022-08-25T03:20:07.834Z,21.54
2022-08-25T03:22:34.139Z,21.55
2022-08-25T03:25:01.751Z,21.56
2022-08-25T03:27:29.380Z,21.34
2022-08-25T03:29:55.740Z,21.59
2022-08-25T03:32:22.061Z,21.55
2022-08-25T03:34:48.360Z,21.40
2022-08-25T03:37:14.795Z,20.93
2022-08-25T03:39:41.154Z,20.91
2022-08-25T03:42:07.530Z,20.03
2022-08-25T03:44:33.928Z,19.95
2022-08-25T03:47:00.252Z,20.00
2022-08-25T03:49:26.564Z,20.09
2022-08-25T03:51:53.723Z,19.97
2022-08-25T03:54:23.648Z,19.88
2022-08-25T03:56:49.987Z,19.88
2022-08-25T03:59:18.042Z,19.98
2022-08-25T04:01:47.713Z,20.03
2022-08-25T04:04:16.640Z,20.10
2022-08-25T04:06:44.352Z,20.04
2022-08-25T04:09:11.461Z,20.04
2022-08-25T04:11:38.433Z,20.07
2022-08-25T04:14:04.887Z,20.15
2022-08-25T04:16:34.482Z,19.89
2022-08-25T04:19:02.683Z,20.02
2022-08-25T04:21:29.152Z,19.76
2022-08-25T04:23:56.315Z,19.91
2022-08-25T04:26:29.905Z,19.99
2022-08-25T04:28:57.502Z,20.02
2022-08-25T04:31:23.933Z,20.02
2022-08-25T04:33:50.636Z,19.81
2022-08-25T04:36:18.800Z,19.70
2022-08-25T04:38:46.570Z,19.78
2022-08-25T04:41:14.914Z,19.90
2022-08-25T04:43:42.482Z,19.70
2022-08-25T04:46:19.469Z,19.65
2022-08-25T04:48:48.192Z,19.58
2022-08-25T04:51:18.346Z,19.44
2022-08-25T04:53:44.790Z,19.43
2022-08-25T04:56:16.248Z,19.95
2022-08-25T04:58:42.796Z,19.99
2022-08-25T05:01:12.658Z,19.98
2022-08-25T05:03:39.163Z,19.59
2022-08-25T05:06:06.164Z,19.59
2022-08-25T05:08:35.215Z,19.78
2022-08-25T05:11:09.861Z,19.95
2022-08-25T05:13:36.836Z,20.24
2022-08-25T05:16:03.838Z,20.12
2022-08-25T05:18:32.519Z,20.32
2022-08-25T05:21:03.475Z,20.37
2022-08-25T05:23:30.000Z,20.16
2022-08-25T05:26:03.203Z,20.36
2022-08-25T05:28:29.673Z,20.50
2022-08-25T05:31:01.832Z,20.47
2022-08-25T05:33:30.578Z,20.14
2022-08-25T05:35:59.592Z,20.15
2022-08-25T05:38:26.396Z,20.14
2022-08-25T05:40:57.354Z,20.23
2022-08-25T05:43:23.707Z,20.34
2022-08-25T05:45:50.233Z,20.20
2022-08-25T05:48:16.579Z,19.99
2022-08-25T05:50:51.301Z,20.41
2022-08-25T05:53:17.618Z,20.41
2022-08-25T05:55:45.019Z,20.39
2022-08-25T05:58:11.339Z,20.47
2022-08-25T06:00:41.296Z,20.73
2022-08-25T06:03:07.707Z,20.79
2022-08-25T06:05:34.290Z,20.86
2022-08-25T06:08:00.634Z,20.94
2022-08-25T06:10:27.494Z,20.81
2022-08-25T06:12:54.000Z,20.89
2022-08-25T06:15:25.345Z,20.98
2022-08-25T06:17:52.459Z,21.16
2022-08-25T06:20:22.168Z,21.02
2022-08-25T06:22:52.213Z,21.19
2022-08-25T06:25:22.025Z,21.42
2022-08-25T06:27:49.114Z,21.35
2022-08-25T06:30:23.726Z,22.01
2022-08-25T06:32:50.954Z,22.10
2022-08-25T06:35:18.882Z,22.05
2022-08-25T06:37:46.084Z,22.16
2022-08-25T06:40:14.520Z,21.84
2022-08-25T06:42:41.188Z,22.20
2022-08-25T06:45:08.450Z,22.42
2022-08-25T06:47:34.985Z,22.35
2022-08-25T06:50:01.473Z,22.37
2022-08-25T06:52:27.917Z,22.49
2022-08-25T06:54:55.795Z,21.88
2022-08-25T06:57:22.137Z,22.04
2022-08-25T06:59:48.487Z,22.31
2022-08-25T07:02:22.309Z,22.19
2022-08-25T07:04:49.288Z,22.05
2022-08-25T07:07:15.602Z,22.45
2022-08-25T07:09:41.930Z,22.35
2022-08-25T07:12:08.452Z,22.59
2022-08-25T07:14:34.829Z,22.95
2022-08-25T07:17:03.066Z,23.11
2022-08-25T07:19:37.172Z,23.09
2022-08-25T07:22:03.534Z,23.06
2022-08-25T07:24:29.879Z,23.11
2022-08-25T07:26:56.223Z,23.35
2022-08-25T07:29:32.051Z,23.35
2022-08-25T07:32:00.645Z,23.18
2022-08-25T07:34:27.010Z,23.37
2022-08-25T07:36:56.168Z,23.43
2022-08-25T07:39:23.772Z,23.67
2022-08-25T07:41:51.987Z,23.70
2022-08-25T07:44:20.575Z,23.61
2022-08-25T07:46:46.991Z,23.74
2022-08-25T07:49:16.684Z,23.95
2022-08-25T07:52:05.050Z,23.58
2022-08-25T07:54:33.977Z,24.00
2022-08-25T07:57:04.710Z,23.99
2022-08-25T07:59:39.311Z,23.62
2022-08-25T08:02:18.362Z,23.67
2022-08-25T08:04:50.446Z,24.32
2022-08-25T08:07:41.919Z,24.09
2022-08-25T08:10:42.465Z,23.94
2022-08-25T08:12:58.624Z,24.24
2022-08-25T08:15:24.974Z,24.06
2022-08-25T08:17:54.768Z,24.62
2022-08-25T08:20:23.479Z,24.55
2022-08-25T08:22:50.279Z,25.18
2022-08-25T08:25:18.834Z,24.87
2022-08-25T08:27:49.343Z,24.56
2022-08-25T08:30:16.485Z,24.68
2022-08-25T08:33:08.103Z,24.30
2022-08-25T08:35:29.151Z,24.66
2022-08-25T08:37:55.583Z,24.80
2022-08-25T08:40:22.065Z,25.40
2022-08-25T08:43:18.504Z,24.91
2022-08-25T08:45:51.748Z,24.91
2022-08-25T08:48:35.925Z,25.04
2022-08-25T08:51:20.439Z,25.14
2022-08-25T08:54:04.235Z,25.11
2022-08-25T08:56:45.228Z,25.63
2022-08-25T08:59:30.276Z,26.38
2022-08-25T09:02:02.737Z,26.68
2022-08-25T09:04:59.053Z,26.34
2022-08-25T09:07:35.599Z,26.50
2022-08-25T09:10:02.309Z,26.01
2022-08-25T09:13:01.503Z,26.27
2022-08-25T09:15:54.644Z,26.01
2022-08-25T09:18:41.050Z,25.97
2022-08-25T09:21:19.879Z,27.06
2022-08-25T09:24:12.631Z,26.24
2022-08-25T09:27:03.782Z,25.68
2022-08-25T09:29:47.936Z,25.41
2022-08-25T09:32:16.828Z,25.45
2022-08-25T09:34:52.497Z,25.86
2022-08-25T09:37:18.839Z,26.18
2022-08-25T09:39:46.715Z,27.19
2022-08-25T09:42:13.697Z,26.49
2022-08-25T09:44:43.171Z,26.17
2022-08-25T09:47:18.631Z,26.40
2022-08-25T09:49:48.090Z,26.45
2022-08-25T09:52:37.427Z,26.28
2022-08-25T09:55:13.297Z,26.32
2022-08-25T09:57:47.608Z,26.28
2022-08-25T10:00:19.730Z,26.43
2022-08-25T10:03:06.038Z,26.40
2022-08-25T10:05:35.449Z,25.93
2022-08-25T10:08:11.084Z,26.07
2022-08-25T10:10:45.838Z,26.10
2022-08-25T10:13:22.961Z,26.31
2022-08-25T10:16:18.046Z,26.66
2022-08-25T10:19:00.986Z,26.82
2022-08-25T10:21:27.303Z,26.94
2022-08-25T10:23:54.296Z,27.27
2022-08-25T10:26:41.685Z,27.20
2022-08-25T10:29:30.618Z,27.28
2022-08-25T10:32:14.186Z,27.50
2022-08-25T10:34:55.754Z,27.39
2022-08-25T10:37:55.135Z,26.81
2022-08-25T10:40:32.198Z,26.58
2022-08-25T10:43:10.879Z,26.87
2022-08-25T10:45:47.081Z,27.13
2022-08-25T10:48:30.881Z,26.66
2022-08-25T10:51:09.662Z,26.80
2022-08-25T10:53:52.225Z,26.85
2022-08-25T10:56:27.452Z,27.46
2022-08-25T10:59:27.862Z,27.54
2022-08-25T11:02:42.163Z,28.05
2022-08-25T11:05:27.032Z,27.91
2022-08-25T11:08:23.707Z,27.91
2022-08-25T11:11:00.596Z,27.79
2022-08-25T11:13:41.377Z,28.16
2022-08-25T11:16:19.282Z,27.43
2022-08-25T11:18:55.409Z,27.69
2022-08-25T11:21:43.830Z,27.89
2022-08-25T11:24:36.605Z,27.54
2022-08-25T11:27:07.553Z,27.54
2022-08-25T11:29:37.747Z,27.57
2022-08-25T11:32:06.326Z,27.63
2022-08-25T11:34:36.128Z,27.08
2022-08-25T11:37:24.396Z,26.68
2022-08-25T11:39:59.917Z,27.02
2022-08-25T11:42:44.352Z,27.20
2022-08-25T11:45:47.467Z,27.71
2022-08-25T11:48:52.734Z,27.48
2022-08-25T11:51:36.516Z,27.75
2022-08-25T11:54:16.989Z,27.97
2022-08-25T11:56:53.028Z,27.88
2022-08-25T11:59:50.294Z,27.73
2022-08-25T12:02:43.697Z,27.89
2022-08-25T12:05:19.451Z,27.91
2022-08-25T12:08:05.849Z,27.54
2022-08-25T12:10:51.823Z,27.58
2022-08-25T12:13:38.689Z,27.79
2022-08-25T12:16:05.961Z,27.71
2022-08-25T12:18:32.217Z,27.72
2022-08-25T12:20:58.478Z,28.13
2022-08-25T12:23:35.198Z,27.67
2022-08-25T12:26:11.899Z,27.66
2022-08-25T12:28:47.670Z,27.33
2022-08-25T12:31:46.222Z,27.97
2022-08-25T12:34:30.925Z,28.32
2022-08-25T12:37:18.644Z,28.30
2022-08-25T12:39:54.502Z,28.39
2022-08-25T12:42:37.002Z,27.93
2022-08-25T12:45:16.067Z,27.95
2022-08-25T12:47:44.970Z,28.02
2022-08-25T12:50:35.223Z,27.98
2022-08-25T12:53:27.971Z,28.08
2022-08-25T12:56:04.914Z,28.58
2022-08-25T12:59:02.010Z,28.73
2022-08-25T13:02:06.998Z,28.78
2022-08-25T13:04:43.490Z,28.88
2022-08-25T13:07:24.465Z,28.66
2022-08-25T13:10:18.316Z,28.29
2022-08-25T13:12:58.308Z,28.20
2022-08-25T13:15:27.520Z,28.12
2022-08-25T13:17:53.846Z,28.19
2022-08-25T13:20:25.367Z,28.35
2022-08-25T13:22:57.884Z,28.43
2022-08-25T13:25:31.932Z,28.32
2022-08-25T13:28:02.789Z,28.16
2022-08-25T13:30:35.332Z,28.32
2022-08-25T13:33:23.075Z,28.62
2022-08-25T13:35:52.546Z,28.40
2022-08-25T13:38:19.501Z,29.13
2022-08-25T13:40:46.384Z,28.73
2022-08-25T13:43:15.037Z,28.80
2022-08-25T13:45:44.921Z,28.97
2022-08-25T13:48:22.673Z,28.88
2022-08-25T13:50:51.681Z,28.82
2022-08-25T13:53:24.738Z,28.34
2022-08-25T13:55:56.948Z,28.31
2022-08-25T13:58:44.817Z,28.36
2022-08-25T14:01:47.741Z,29.01
2022-08-25T14:04:29.900Z,28.72
2022-08-25T14:07:14.018Z,28.61
2022-08-25T14:09:51.350Z,28.41
2022-08-25T14:12:36.944Z,28.69
2022-08-25T14:15:27.292Z,28.49
2022-08-25T14:18:08.408Z,28.48
2022-08-25T14:20:37.099Z,28.39
2022-08-25T14:23:10.373Z,28.71
2022-08-25T14:25:37.265Z,28.72
2022-08-25T14:28:16.083Z,29.03
2022-08-25T14:30:47.084Z,28.68
2022-08-25T14:33:14.988Z,28.75
2022-08-25T14:35:44.385Z,28.74
2022-08-25T14:38:11.700Z,28.67
2022-08-25T14:40:39.149Z,28.78
2022-08-25T14:43:07.447Z,28.64
2022-08-25T14:45:39.231Z,28.47
2022-08-25T14:48:10.619Z,28.76
2022-08-25T14:50:38.374Z,28.52
2022-08-25T14:53:10.532Z,28.32
2022-08-25T14:55:36.970Z,28.62
2022-08-25T14:58:03.416Z,28.89
2022-08-25T15:00:37.050Z,28.43
2022-08-25T15:03:03.784Z,28.85
2022-08-25T15:05:30.123Z,28.61
2022-08-25T15:07:57.317Z,28.57
2022-08-25T15:10:23.649Z,28.82
2022-08-25T15:12:51.210Z,28.72
2022-08-25T15:15:21.253Z,28.76
2022-08-25T15:17:49.463Z,28.67
2022-08-25T15:20:17.186Z,28.61
2022-08-25T15:22:43.623Z,28.86
2022-08-25T15:25:10.286Z,28.84
2022-08-25T15:27:37.266Z,28.91
2022-08-25T15:30:05.401Z,28.97
2022-08-25T15:32:31.875Z,28.86
2022-08-25T15:34:58.228Z,28.63
2022-08-25T15:37:24.757Z,28.65
2022-08-25T15:39:51.921Z,28.61
2022-08-25T15:42:18.551Z,28.60
2022-08-25T15:44:53.376Z,28.45
2022-08-25T15:47:20.456Z,28.39
2022-08-25T15:49:47.152Z,28.79
2022-08-25T15:52:13.478Z,28.61
2022-08-25T15:54:39.882Z,28.94
2022-08-25T15:57:08.762Z,28.71
2022-08-25T15:59:35.888Z,28.57
2022-08-25T16:02:14.788Z,28.77
2022-08-25T16:04:41.698Z,28.64
2022-08-25T16:07:09.241Z,28.61
2022-08-25T16:09:40.475Z,28.86
2022-08-25T16:12:08.482Z,28.37
2022-08-25T16:14:35.700Z,28.57
2022-08-25T16:17:02.028Z,28.50
2022-08-25T16:19:28.899Z,28.43
2022-08-25T16:21:55.496Z,28.33
2022-08-25T16:24:21.821Z,28.36
2022-08-25T16:26:48.848Z,28.17
2022-08-25T16:29:15.585Z,28.14
2022-08-25T16:31:43.175Z,28.21
2022-08-25T16:34:09.602Z,28.23
2022-08-25T16:36:38.007Z,28.25
2022-08-25T16:39:04.878Z,28.14
2022-08-25T16:41:36.448Z,28.35
2022-08-25T16:44:04.837Z,28.20
2022-08-25T16:46:31.177Z,28.16
2022-08-25T16:49:01.652Z,28.19
2022-08-25T16:51:29.585Z,28.25
2022-08-25T16:53:57.093Z,28.28
2022-08-25T16:56:23.443Z,28.36
2022-08-25T16:58:53.467Z,28.49
2022-08-25T17:01:20.148Z,28.23
2022-08-25T17:03:46.684Z,28.31
2022-08-25T17:06:13.086Z,28.26
2022-08-25T17:08:40.556Z,28.22
2022-08-25T17:11:15.736Z,28.13
2022-08-25T17:13:45.694Z,28.45
2022-08-25T17:16:14.618Z,28.35
2022-08-25T17:18:42.194Z,28.13
2022-08-25T17:21:19.478Z,28.06
2022-08-25T17:23:51.328Z,28.12
2022-08-25T17:26:17.922Z,27.97
2022-08-25T17:28:44.228Z,28.20
2022-08-25T17:31:12.644Z,28.15
2022-08-25T17:33:39.042Z,27.98
2022-08-25T17:36:06.652Z,28.03
2022-08-25T17:38:33.986Z,28.02
2022-08-25T17:41:02.930Z,27.87
2022-08-25T17:43:33.618Z,27.88
2022-08-25T17:46:00.027Z,27.73
2022-08-25T17:48:27.877Z,27.75
2022-08-25T17:50:55.360Z,27.89
2022-08-25T17:53:21.813Z,27.82
2022-08-25T17:56:06.854Z,27.83
2022-08-25T17:58:33.471Z,27.87
2022-08-25T18:00:59.872Z,27.85
2022-08-25T18:03:27.297Z,27.80
2022-08-25T18:05:53.963Z,27.83
2022-08-25T18:08:20.371Z,27.81
2022-08-25T18:10:58.817Z,28.07
2022-08-25T18:13:25.141Z,27.90
2022-08-25T18:15:51.464Z,27.68
2022-08-25T18:18:17.993Z,27.68
2022-08-25T18:20:45.884Z,27.74
2022-08-25T18:23:13.370Z,27.65
2022-08-25T18:25:41.639Z,27.63
2022-08-25T18:28:08.920Z,27.39
2022-08-25T18:30:36.291Z,27.57
2022-08-25T18:33:02.699Z,27.33
2022-08-25T18:35:29.693Z,27.28
2022-08-25T18:37:56.062Z,27.18
2022-08-25T18:40:22.981Z,27.10
2022-08-25T18:42:54.323Z,27.19
2022-08-25T18:45:25.538Z,26.95
2022-08-25T18:47:53.365Z,27.03
2022-08-25T18:50:20.491Z,27.10
2022-08-25T18:52:46.832Z,26.87
2022-08-25T18:55:13.492Z,26.99
2022-08-25T18:57:41.734Z,27.19
2022-08-25T19:00:11.513Z,26.86
2022-08-25T19:02:38.015Z,26.92
2022-08-25T19:05:07.557Z,26.89
2022-08-25T19:07:36.874Z,27.01
2022-08-25T19:10:06.879Z,26.82
2022-08-25T19:12:33.661Z,26.77
2022-08-25T19:15:04.694Z,26.63
2022-08-25T19:17:37.530Z,26.59
2022-08-25T19:20:11.294Z,26.74
2022-08-25T19:22:42.068Z,26.76
2022-08-25T19:25:10.107Z,26.79
2022-08-25T19:27:36.806Z,26.39
2022-08-25T19:30:06.525Z,26.45
2022-08-25T19:32:33.129Z,26.67
2022-08-25T19:34:59.476Z,26.30
2022-08-25T19:37:28.419Z,26.15
2022-08-25T19:39:55.308Z,26.24
2022-08-25T19:42:37.224Z,26.08
2022-08-25T19:45:11.349Z,26.25
2022-08-25T19:47:37.913Z,26.19
2022-08-25T19:50:05.929Z,26.13
2022-08-25T19:52:32.616Z,26.06
2022-08-25T19:54:58.946Z,26.07
2022-08-25T19:57:28.266Z,26.09
2022-08-25T20:00:10.347Z,26.10
2022-08-25T20:02:36.749Z,26.17
2022-08-25T20:05:04.621Z,26.09
2022-08-25T20:07:32.683Z,26.06
2022-08-25T20:10:00.506Z,25.98
2022-08-25T20:12:28.544Z,26.22
2022-08-25T20:14:55.451Z,25.97
2022-08-25T20:17:24.670Z,26.03
2022-08-25T20:19:55.383Z,25.78
2022-08-25T20:22:26.104Z,25.94
2022-08-25T20:24:55.800Z,25.99
2022-08-25T20:27:27.976Z,25.96
2022-08-25T20:29:54.308Z,25.77
2022-08-25T20:32:20.683Z,25.84
2022-08-25T20:34:48.031Z,25.52
2022-08-25T20:37:14.726Z,25.61
2022-08-25T20:39:41.356Z,25.59
2022-08-25T20:42:08.207Z,25.71
2022-08-25T20:44:41.784Z,25.57
2022-08-25T20:47:10.503Z,25.83
2022-08-25T20:49:38.000Z,25.68
2022-08-25T20:52:05.117Z,25.90
2022-08-25T20:54:31.621Z,25.78
2022-08-25T20:56:58.879Z,25.77
2022-08-25T20:59:27.273Z,25.72
2022-08-25T21:01:55.244Z,25.48
2022-08-25T21:04:24.443Z,25.57
2022-08-25T21:06:50.847Z,25.72
2022-08-25T21:09:20.033Z,25.77
2022-08-25T21:11:47.688Z,25.62
2022-08-25T21:14:14.369Z,25.22
2022-08-25T21:16:42.784Z,25.11
2022-08-25T21:19:11.087Z,25.38
2022-08-25T21:21:38.582Z,25.30
2022-08-25T21:24:09.789Z,25.17
2022-08-25T21:26:37.709Z,25.26
2022-08-25T21:29:16.356Z,25.11
2022-08-25T21:31:42.774Z,25.05
2022-08-25T21:34:10.876Z,25.35
2022-08-25T21:36:39.285Z,25.24
2022-08-25T21:39:05.975Z,25.38
2022-08-25T21:41:33.961Z,25.25
2022-08-25T21:44:01.373Z,25.18
2022-08-25T21:46:30.399Z,25.14
2022-08-25T21:48:58.875Z,24.90
2022-08-25T21:51:29.571Z,25.18
2022-08-25T21:53:56.856Z,25.23
2022-08-25T21:56:23.172Z,25.51
2022-08-25T21:58:52.737Z,25.03
2022-08-25T22:01:20.179Z,25.21
2022-08-25T22:03:47.362Z,24.99
2022-08-25T22:06:14.892Z,25.27
2022-08-25T22:08:43.015Z,25.05
2022-08-25T22:11:10.414Z,25.08
2022-08-25T22:13:38.285Z,24.94
2022-08-25T22:16:07.680Z,25.15
2022-08-25T22:18:34.678Z,24.98
2022-08-25T22:21:01.186Z,24.95
2022-08-25T22:23:44.663Z,24.82
2022-08-25T22:26:12.700Z,25.04
2022-08-25T22:28:39.673Z,25.30
2022-08-25T22:31:10.544Z,25.21
2022-08-25T22:33:37.009Z,25.00
2022-08-25T22:36:23.228Z,25.00
2022-08-25T22:38:54.131Z,24.90
2022-08-25T22:41:21.922Z,24.86
2022-08-25T22:43:49.527Z,24.80
2022-08-25T22:46:19.206Z,24.74
2022-08-25T22:48:46.201Z,24.91
2022-08-25T22:51:15.530Z,24.98
2022-08-25T22:53:43.793Z,24.92
2022-08-25T22:56:12.091Z,25.03
2022-08-25T22:58:39.248Z,24.95
2022-08-25T23:01:17.448Z,24.89
2022-08-25T23:03:45.076Z,24.72
2022-08-25T23:06:25.044Z,24.81
2022-08-25T23:08:53.921Z,24.63
2022-08-25T23:11:21.845Z,24.73
2022-08-25T23:13:48.499Z,24.90
2022-08-25T23:16:15.592Z,24.83
2022-08-25T23:18:43.926Z,24.67
2022-08-25T23:21:11.398Z,24.72
2022-08-25T23:23:37.710Z,24.78
2022-08-25T23:26:04.461Z,24.84
2022-08-25T23:28:31.080Z,24.84
2022-08-25T23:30:59.271Z,25.08
2022-08-25T23:33:26.366Z,24.53
2022-08-25T23:36:00.923Z,24.62
2022-08-25T23:38:27.276Z,24.97
2022-08-25T23:40:54.614Z,24.94
2022-08-25T23:43:21.447Z,24.65
2022-08-25T23:45:48.174Z,24.76
2022-08-25T23:48:14.891Z,24.65
2022-08-25T23:50:47.204Z,24.63
2022-08-25T23:53:20.503Z,24.73
2022-08-25T23:55:53.015Z,24.75
2022-08-25T23:58:20.247Z,24.89
